createdAt,value
2019-04-14T00:00:22.973Z,32.00
2019-04-14T00:03:04.932Z,31.94
2019-04-14T00:05:36.990Z,32.00
2019-04-14T00:08:11.898Z,32.00
2019-04-14T00:10:44.245Z,32.02
2019-04-14T00:13:17.408Z,32.03
2019-04-14T00:15:50.740Z,32.08
2019-04-14T00:18:22.994Z,32.05
2019-04-14T00:20:57.732Z,32.08
2019-04-14T00:23:30.425Z,32.17
2019-04-14T00:26:05.199Z,32.14
2019-04-14T00:28:36.748Z,32.24
2019-04-14T00:31:07.053Z,32.32
2019-04-14T00:33:38.923Z,32.34
2019-04-14T00:36:11.686Z,32.41
2019-04-14T00:38:45.594Z,32.46
2019-04-14T00:41:18.495Z,32.45
2019-04-14T00:43:52.719Z,32.49
2019-04-14T00:46:31.258Z,32.53
2019-04-14T00:49:02.815Z,32.56
2019-04-14T00:51:36.767Z,32.52
2019-04-14T00:54:08.756Z,32.56
2019-04-14T00:56:41.534Z,32.58
2019-04-14T00:59:13.628Z,32.59
2019-04-14T01:01:45.920Z,32.58
2019-04-14T13:56:06.950Z,33.60
2019-04-14T13:58:40.614Z,33.60
2019-04-14T14:01:12.742Z,33.61
2019-04-14T14:03:45.092Z,33.57
2019-04-14T14:06:16.798Z,33.59
2019-04-14T14:08:50.229Z,33.65
2019-04-14T14:11:23.116Z,33.65
2019-04-14T14:13:55.313Z,33.69
2019-04-14T14:16:31.864Z,33.68
2019-04-14T14:19:04.251Z,33.68
2019-04-14T14:21:37.252Z,33.71
2019-04-14T14:24:09.594Z,33.68
2019-04-14T14:26:57.242Z,33.56
2019-04-14T14:29:28.853Z,33.53
2019-04-14T14:32:02.222Z,33.50
2019-04-14T14:34:33.765Z,33.55
2019-04-14T14:37:11.827Z,33.52
2019-04-14T14:39:43.688Z,33.51
2019-04-14T14:42:22.640Z,33.48
2019-04-14T14:44:55.331Z,33.47
2019-04-14T14:47:29.117Z,33.46
2019-04-14T14:50:04.183Z,33.44
2019-04-14T14:52:36.784Z,33.47
2019-04-14T14:55:09.205Z,33.43
2019-04-14T14:57:46.726Z,33.43
2019-04-14T15:00:19.537Z,33.41
2019-04-14T15:02:51.451Z,33.43
2019-04-14T15:05:23.427Z,33.48
2019-04-14T15:07:55.205Z,33.46
2019-04-14T15:10:34.712Z,33.44
2019-04-14T15:13:11.258Z,33.44
2019-04-14T15:15:42.688Z,33.43
2019-04-14T15:18:14.147Z,33.48
2019-04-14T15:20:47.840Z,33.42
2019-04-14T15:23:25.105Z,33.39
2019-04-14T15:25:52.065Z,33.39
2019-04-14T15:28:25.813Z,33.40
2019-04-14T15:31:02.011Z,33.39
2019-04-14T15:33:33.836Z,33.39
2019-04-14T15:36:07.140Z,33.39
2019-04-14T15:38:40.244Z,33.36
2019-04-14T15:41:11.929Z,33.38
2019-04-14T15:43:51.023Z,33.37
2019-04-14T15:46:30.328Z,33.38
2019-04-14T15:49:02.111Z,33.36
2019-04-14T15:51:34.167Z,33.34
2019-04-14T15:54:05.936Z,33.29
2019-04-14T15:56:39.855Z,33.31
2019-04-14T15:59:12.650Z,33.28
2019-04-14T16:01:45.622Z,33.34
2019-04-14T16:04:18.712Z,33.31
2019-04-14T16:06:51.818Z,33.36
2019-04-14T16:09:24.586Z,33.32
2019-04-14T16:12:04.142Z,33.33
2019-04-14T16:14:36.621Z,33.31
2019-04-14T16:17:14.618Z,33.25
2019-04-14T16:19:47.181Z,33.25
2019-04-14T16:22:19.643Z,33.21
2019-04-14T16:24:50.911Z,33.26
2019-04-14T16:27:27.668Z,33.27
2019-04-14T16:30:00.891Z,33.20
2019-04-14T16:32:33.975Z,33.21
2019-04-14T16:35:08.948Z,33.20
2019-04-14T16:37:40.203Z,33.21
2019-04-14T16:40:14.901Z,33.19
2019-04-14T16:42:46.817Z,33.14
2019-04-14T16:45:31.131Z,33.16
2019-04-14T16:48:02.901Z,33.14
2019-04-14T16:50:35.954Z,33.12
2019-04-14T16:53:08.959Z,33.13
2019-04-14T16:55:41.796Z,33.14
2019-04-14T16:58:14.730Z,33.11
2019-04-14T17:00:47.520Z,33.11
2019-04-14T17:03:23.499Z,33.06
2019-04-14T17:05:51.940Z,33.08
2019-04-14T17:08:23.843Z,33.08
2019-04-14T17:10:56.051Z,33.13
2019-04-14T17:13:29.288Z,33.11
2019-04-14T17:16:03.290Z,33.09
2019-04-14T17:18:36.287Z,33.08
2019-04-14T17:21:09.969Z,33.07
2019-04-14T17:23:43.476Z,33.03
2019-04-14T17:26:16.459Z,33.04
2019-04-14T17:28:49.666Z,33.07
2019-04-14T17:31:24.274Z,33.05
2019-04-14T17:34:02.487Z,33.00
2019-04-14T17:36:41.835Z,33.01
2019-04-14T17:39:14.819Z,33.00
2019-04-14T17:41:47.085Z,32.99
2019-04-14T17:44:20.181Z,33.02
2019-04-14T17:46:54.614Z,33.08
2019-04-14T17:49:28.882Z,33.01
2019-04-14T17:52:01.875Z,33.01
2019-04-14T17:54:37.603Z,32.99
2019-04-14T17:57:12.595Z,32.99
2019-04-14T17:59:49.992Z,32.97
2019-04-14T18:02:24.341Z,32.97
2019-04-14T18:04:57.359Z,32.97
2019-04-14T18:07:30.401Z,32.99
2019-04-14T18:10:04.584Z,33.00
2019-04-14T18:12:37.785Z,32.96
2019-04-14T18:15:21.599Z,32.93
2019-04-14T18:17:56.213Z,32.92
2019-04-14T18:20:29.151Z,32.90
2019-04-14T18:23:00.654Z,32.89
2019-04-14T18:25:32.104Z,32.89
2019-04-14T18:28:08.011Z,32.90
2019-04-14T18:30:48.347Z,32.93
2019-04-14T18:33:22.817Z,32.89
2019-04-14T18:35:58.650Z,32.85
2019-04-14T18:38:37.613Z,32.86
2019-04-14T18:41:12.759Z,32.86
2019-04-14T18:43:45.708Z,32.83
2019-04-14T18:46:18.798Z,32.80
2019-04-14T18:48:51.670Z,32.80
2019-04-14T18:51:24.760Z,32.83
2019-04-14T18:53:57.729Z,32.84
2019-04-14T18:56:31.871Z,32.84
2019-04-14T18:59:04.675Z,32.83
2019-04-14T19:01:37.592Z,32.82
2019-04-14T19:04:09.409Z,32.81
2019-04-14T19:06:47.892Z,32.80
2019-04-14T19:09:19.340Z,32.78
2019-04-14T19:11:50.861Z,32.78
2019-04-14T19:14:24.308Z,32.80
2019-04-14T19:16:57.718Z,32.77
2019-04-14T19:19:35.813Z,32.74
2019-04-14T19:22:08.479Z,32.77
2019-04-14T19:24:40.423Z,32.73
2019-04-14T19:27:11.846Z,32.80
2019-04-14T19:29:43.591Z,32.75
2019-04-14T19:32:14.789Z,32.78
2019-04-14T19:34:44.640Z,32.77
2019-04-14T19:37:17.817Z,32.82
2019-04-14T19:39:49.822Z,32.84
2019-04-14T19:42:21.049Z,32.84
2019-04-14T19:44:56.329Z,32.75
2019-04-14T19:47:29.287Z,32.79
2019-04-14T19:50:00.846Z,32.78
2019-04-14T19:52:32.667Z,32.77
2019-04-14T19:55:04.173Z,32.76
2019-04-14T19:57:38.787Z,32.72
2019-04-14T20:00:11.336Z,32.73
2019-04-14T20:02:42.897Z,32.75
2019-04-14T20:05:14.447Z,32.73
2019-04-14T20:07:45.731Z,32.71
2019-04-14T20:10:18.490Z,32.71
2019-04-14T20:12:50.117Z,32.74
2019-04-14T20:15:29.626Z,32.72
2019-04-14T20:18:02.375Z,32.73
2019-04-14T20:20:41.489Z,32.79
2019-04-14T20:23:12.508Z,32.73
2019-04-14T20:25:51.987Z,32.78
2019-04-14T20:28:25.255Z,32.69
2019-04-14T20:30:58.268Z,32.70
2019-04-14T20:33:35.956Z,32.66
2019-04-14T20:36:08.687Z,32.67
2019-04-14T20:38:40.254Z,32.67
2019-04-14T20:41:11.963Z,32.69
2019-04-14T20:43:43.714Z,32.65
2019-04-14T20:46:15.129Z,32.62
2019-04-14T20:48:46.720Z,32.66
2019-04-14T20:51:18.518Z,32.63
2019-04-14T20:53:50.535Z,32.64
2019-04-14T20:56:22.625Z,32.66
2019-04-14T20:58:53.752Z,32.67
2019-04-14T21:01:26.203Z,32.65
2019-04-14T21:03:58.332Z,32.65
2019-04-14T21:06:31.395Z,32.66
2019-04-14T21:09:07.392Z,32.69
2019-04-14T21:11:40.134Z,32.64
2019-04-14T21:14:19.069Z,32.65
2019-04-14T21:16:56.975Z,32.60
2019-04-14T21:19:29.744Z,32.59
2019-04-14T21:22:02.645Z,32.60
2019-04-14T21:24:35.083Z,32.59
2019-04-14T21:27:07.379Z,32.58
2019-04-14T21:29:46.827Z,32.57
2019-04-14T21:32:19.559Z,32.58
2019-04-14T21:34:52.494Z,32.58
2019-04-14T21:37:31.921Z,32.61
2019-04-14T21:40:09.836Z,32.60
2019-04-14T21:42:42.532Z,32.59
2019-04-14T21:45:14.533Z,32.60
2019-04-14T21:47:52.892Z,32.56
2019-04-14T21:50:24.551Z,32.57
2019-04-14T21:52:58.675Z,32.57
2019-04-14T21:55:30.042Z,32.57
2019-04-14T21:58:02.896Z,32.56
2019-04-14T22:00:38.457Z,32.52
2019-04-14T22:03:12.843Z,32.58
2019-04-14T22:05:45.868Z,32.49
2019-04-14T22:08:25.103Z,32.52
2019-04-14T22:10:56.248Z,32.53
2019-04-14T22:13:28.301Z,32.54
2019-04-14T22:16:00.164Z,32.49
2019-04-14T22:18:31.562Z,32.52
2019-04-14T22:21:03.647Z,32.51
2019-04-14T22:23:35.454Z,32.49
2019-04-14T22:26:07.191Z,32.48
2019-04-14T22:28:38.948Z,32.54
2019-04-14T22:31:10.442Z,32.48
2019-04-14T22:33:41.972Z,32.48
2019-04-14T22:36:13.701Z,32.48
2019-04-14T22:38:45.255Z,32.48
2019-04-14T22:41:15.350Z,32.47
2019-04-14T22:43:46.833Z,32.50
2019-04-14T22:46:16.741Z,32.47
2019-04-14T22:48:53.741Z,32.52
2019-04-14T22:51:26.910Z,32.53
2019-04-14T22:53:58.491Z,32.51
2019-04-14T22:56:39.296Z,32.51
2019-04-14T22:59:01.499Z,32.47
2019-04-14T23:01:34.133Z,32.45
2019-04-14T23:04:07.043Z,32.46
2019-04-14T23:06:38.017Z,32.49
2019-04-14T23:09:21.030Z,32.47
2019-04-14T23:11:54.238Z,32.51
2019-04-14T23:14:26.789Z,32.49
2019-04-14T23:16:59.489Z,32.50
2019-04-14T23:19:32.177Z,32.48
2019-04-14T23:22:04.912Z,32.43
2019-04-14T23:24:40.302Z,32.49
2019-04-14T23:27:11.650Z,32.45
2019-04-14T23:29:43.007Z,32.47
2019-04-14T23:32:16.270Z,32.49
2019-04-14T23:34:47.942Z,32.50
2019-04-14T23:37:19.314Z,32.50
2019-04-14T23:39:50.999Z,32.49
2019-04-14T23:42:22.448Z,32.50
2019-04-14T23:44:52.464Z,32.49
2019-04-14T23:47:24.309Z,32.57
2019-04-14T23:49:55.973Z,32.56
2019-04-14T23:52:28.079Z,32.57
2019-04-14T23:54:59.429Z,32.56
2019-04-14T23:57:31.107Z,32.57
